createdAt,value
2023-03-07T00:01:25.896Z,92482.06
2023-03-07T00:03:53.796Z,92459.03
2023-03-07T00:06:21.647Z,92448.53
2023-03-07T00:08:51.371Z,92445.00
2023-03-07T00:11:19.641Z,92438.44
2023-03-07T00:13:47.775Z,92426.97
2023-03-07T00:16:18.085Z,92414.50
2023-03-07T00:18:47.871Z,92387.38
2023-03-07T00:21:17.139Z,92373.13
2023-03-07T00:23:46.080Z,92361.47
2023-03-07T00:26:16.465Z,92345.03
2023-03-07T00:28:46.538Z,92335.56
2023-03-07T00:31:14.471Z,92323.31
2023-03-07T00:33:42.462Z,92302.91
2023-03-07T00:36:15.468Z,92292.41
2023-03-07T00:38:44.003Z,92273.84
2023-03-07T00:41:14.296Z,92286.91
2023-03-07T00:43:42.799Z,92296.38
2023-03-07T00:46:11.174Z,92276.41
2023-03-07T00:48:40.729Z,92268.09
2023-03-07T00:51:11.439Z,92253.25
2023-03-07T00:53:41.518Z,92226.00
2023-03-07T00:56:14.867Z,92218.66
2023-03-07T00:58:42.757Z,92206.22
2023-03-07T01:01:12.861Z,92209.41
2023-03-07T01:03:40.837Z,92182.91
2023-03-07T01:06:11.342Z,92176.22
2023-03-07T01:08:40.479Z,92170.28
2023-03-07T01:11:08.793Z,92166.34
2023-03-07T01:13:37.127Z,92152.09
2023-03-07T01:16:09.424Z,92141.41
2023-03-07T01:18:37.311Z,92127.75
2023-03-07T01:21:12.795Z,92106.84
2023-03-07T01:23:41.887Z,92088.50
2023-03-07T01:26:14.607Z,92076.06
2023-03-07T01:28:42.797Z,92077.03
2023-03-07T01:31:11.094Z,92077.03
2023-03-07T01:33:39.372Z,92059.59
2023-03-07T01:36:17.616Z,92065.59
2023-03-07T01:38:46.883Z,92060.81
2023-03-07T01:41:15.152Z,92074.47
2023-03-07T01:43:43.241Z,92047.03
2023-03-07T01:46:29.238Z,92039.53
2023-03-07T01:49:01.181Z,92024.13
2023-03-07T01:51:30.198Z,92004.81
2023-03-07T01:54:00.561Z,92015.84
2023-03-07T01:56:28.936Z,92006.94
2023-03-07T01:58:57.137Z,92012.28
2023-03-07T02:01:27.240Z,92018.38
2023-03-07T02:03:58.598Z,92010.72
2023-03-07T02:06:28.686Z,92002.97
2023-03-07T02:08:57.836Z,92005.97
2023-03-07T02:11:27.959Z,91958.75
2023-03-07T02:13:55.869Z,91960.44
2023-03-07T02:16:23.836Z,91955.84
2023-03-07T02:18:51.902Z,91919.53
2023-03-07T02:21:34.420Z,91901.03
2023-03-07T02:24:09.715Z,91889.41
2023-03-07T02:26:44.774Z,91873.81
2023-03-07T02:29:20.930Z,91871.03
2023-03-07T02:31:54.916Z,91873.81
2023-03-07T02:34:25.549Z,91869.88
2023-03-07T02:36:58.448Z,91862.38
2023-03-07T02:39:30.354Z,91862.97
2023-03-07T02:42:02.074Z,91858.22
2023-03-07T02:44:29.854Z,91847.41
2023-03-07T02:46:57.633Z,91842.22
2023-03-07T02:49:25.520Z,91837.69
2023-03-07T02:51:57.528Z,91824.50
2023-03-07T02:54:26.255Z,91812.69
2023-03-07T02:56:54.141Z,91817.00
2023-03-07T02:59:23.425Z,91827.66
2023-03-07T03:01:51.319Z,91820.97
2023-03-07T03:04:19.262Z,91820.97
2023-03-07T03:06:47.355Z,91829.41
2023-03-07T03:09:15.136Z,91827.66
2023-03-07T03:11:43.874Z,91816.22
2023-03-07T03:14:11.724Z,91792.97
2023-03-07T03:16:41.384Z,91773.25
2023-03-07T03:19:09.363Z,91735.53
2023-03-07T03:21:37.172Z,91768.16
2023-03-07T03:24:08.919Z,91765.59
2023-03-07T03:26:37.368Z,91748.44
2023-03-07T03:29:06.520Z,91738.56
2023-03-07T03:31:35.086Z,91718.84
2023-03-07T03:34:05.645Z,91712.34
2023-03-07T03:36:33.870Z,91702.31
2023-03-07T03:39:01.867Z,91713.16
2023-03-07T03:41:29.659Z,91714.72
2023-03-07T03:43:57.854Z,91717.09
2023-03-07T03:46:25.683Z,91713.16
2023-03-07T03:48:54.427Z,91698.00
2023-03-07T03:51:25.010Z,91712.16
2023-03-07T03:53:52.973Z,91704.88
2023-03-07T03:56:23.805Z,91683.22
2023-03-07T03:58:53.151Z,91677.50
2023-03-07T04:01:22.560Z,91657.81
2023-03-07T04:03:52.288Z,91652.47
2023-03-07T04:06:22.436Z,91648.56
2023-03-07T04:08:52.619Z,91657.81
2023-03-07T04:11:20.674Z,91648.75
2023-03-07T04:13:48.748Z,91655.44
2023-03-07T04:16:17.437Z,91632.97
2023-03-07T04:18:45.589Z,91611.34
2023-03-07T04:21:14.040Z,91619.97
2023-03-07T04:23:42.053Z,91615.66
2023-03-07T04:26:12.264Z,91613.09
2023-03-07T04:28:44.804Z,91601.88
2023-03-07T04:31:14.386Z,91593.63
2023-03-07T04:33:43.007Z,91584.38
2023-03-07T04:36:11.757Z,91574.53
2023-03-07T04:38:40.604Z,91591.06
2023-03-07T04:41:09.209Z,91590.28
2023-03-07T04:43:38.338Z,91585.34
2023-03-07T04:46:08.895Z,91575.50
2023-03-07T04:48:36.798Z,91555.41
2023-03-07T04:51:05.219Z,91549.16
2023-03-07T04:53:33.180Z,91549.16
2023-03-07T04:56:01.651Z,91564.09
2023-03-07T04:58:29.832Z,91550.72
2023-03-07T05:00:59.529Z,91539.13
2023-03-07T05:03:28.340Z,91546.00
2023-03-07T05:05:56.791Z,91546.00
2023-03-07T05:08:24.632Z,91543.78
2023-03-07T05:10:52.365Z,91533.75
2023-03-07T05:13:20.345Z,91525.13
2023-03-07T05:15:52.564Z,91524.34
2023-03-07T05:18:22.535Z,91512.91
2023-03-07T05:20:51.577Z,91518.63
2023-03-07T05:23:20.544Z,91504.66
2023-03-07T05:25:48.296Z,91495.59
2023-03-07T05:28:17.288Z,91506.22
2023-03-07T05:30:45.533Z,91512.91
2023-03-07T05:33:15.097Z,91534.19
2023-03-07T05:35:44.411Z,91540.88
2023-03-07T05:38:12.341Z,91539.31
2023-03-07T05:40:40.206Z,91540.09
2023-03-07T05:43:08.075Z,91530.66
2023-03-07T05:45:35.886Z,91550.72
2023-03-07T05:48:03.704Z,91553.47
2023-03-07T05:50:32.018Z,91544.03
2023-03-07T05:53:01.470Z,91554.66
2023-03-07T05:55:29.907Z,91577.88
2023-03-07T05:57:57.772Z,91586.56
2023-03-07T06:00:25.831Z,91612.50
2023-03-07T06:02:53.681Z,91632.03
2023-03-07T06:05:22.798Z,91675.94
2023-03-07T06:07:51.632Z,91768.94
2023-03-07T06:10:21.146Z,91887.25
2023-03-07T06:12:51.117Z,92001.44
2023-03-07T06:15:19.200Z,92104.72
2023-03-07T06:17:47.007Z,92176.81
2023-03-07T06:20:16.020Z,92202.94
2023-03-07T06:22:43.793Z,92238.69
2023-03-07T06:25:11.594Z,92254.31
2023-03-07T06:27:41.204Z,92265.19
2023-03-07T06:30:10.190Z,92313.03
2023-03-07T06:32:38.102Z,92369.25
2023-03-07T06:35:06.674Z,92491.59
2023-03-07T06:37:34.472Z,92593.22
2023-03-07T06:40:06.144Z,92634.19
2023-03-07T06:42:33.884Z,92614.38
2023-03-07T06:45:03.128Z,92578.53
2023-03-07T06:47:30.952Z,92577.91
2023-03-07T06:49:58.964Z,92584.28
2023-03-07T06:52:26.822Z,92599.31
2023-03-07T06:54:54.614Z,92613.56
2023-03-07T06:57:22.347Z,92624.28
2023-03-07T06:59:50.197Z,92657.38
2023-03-07T07:02:19.483Z,92699.00
2023-03-07T07:04:47.254Z,92738.84
2023-03-07T07:07:15.017Z,92801.59
2023-03-07T07:09:42.754Z,92945.47
2023-03-07T07:12:10.633Z,93101.50
2023-03-07T07:14:38.400Z,93293.16
2023-03-07T07:17:06.242Z,93499.56
2023-03-07T07:19:35.916Z,93742.97
2023-03-07T07:22:04.206Z,94014.84
2023-03-07T07:24:31.928Z,94331.28
2023-03-07T07:26:59.655Z,94641.63
2023-03-07T07:29:27.572Z,94962.94
2023-03-07T07:31:55.455Z,95376.34
2023-03-07T07:34:23.298Z,95758.84
2023-03-07T07:36:53.185Z,95987.78
2023-03-07T07:39:21.845Z,96056.06
2023-03-07T07:41:49.622Z,96061.66
2023-03-07T07:44:17.456Z,96311.94
2023-03-07T07:49:37.771Z,96680.06
2023-03-07T07:52:07.217Z,96871.81
2023-03-07T07:54:34.988Z,97107.72
2023-03-07T07:57:03.022Z,97152.03
2023-03-07T07:59:31.805Z,97247.06
2023-03-07T08:01:59.583Z,97192.44
2023-03-07T08:04:27.554Z,97148.28
2023-03-07T08:06:55.321Z,96928.25
2023-03-07T08:09:24.466Z,96744.34
2023-03-07T08:11:52.223Z,96797.19
2023-03-07T08:14:20.093Z,96666.19
2023-03-07T08:16:47.906Z,96536.69
2023-03-07T08:19:16.669Z,96533.69
2023-03-07T08:21:44.510Z,96698.38
2023-03-07T08:24:12.322Z,96609.25
2023-03-07T08:26:41.525Z,96725.59
2023-03-07T08:29:09.275Z,96974.31
2023-03-07T08:31:37.101Z,96937.09
2023-03-07T08:34:04.916Z,97105.00
2023-03-07T08:36:32.743Z,97046.25
2023-03-07T08:39:00.582Z,97214.09
2023-03-07T08:41:28.984Z,97302.19
2023-03-07T08:43:58.108Z,97526.97
2023-03-07T08:46:26.074Z,97616.84
2023-03-07T08:48:53.989Z,97543.28
2023-03-07T08:51:22.062Z,97567.06
2023-03-07T08:53:49.951Z,97493.78
2023-03-07T08:56:19.156Z,97174.34
2023-03-07T08:58:47.283Z,96845.38
2023-03-07T09:01:16.408Z,96793.50
2023-03-07T09:03:44.775Z,96763.88
2023-03-07T09:06:18.835Z,96655.50
2023-03-07T09:08:47.405Z,96813.72
2023-03-07T09:11:15.493Z,96867.44
2023-03-07T09:13:52.048Z,96863.41
2023-03-07T09:16:22.902Z,96858.84
2023-03-07T09:18:51.514Z,96920.31
2023-03-07T09:21:19.375Z,97030.94
2023-03-07T09:23:47.226Z,97003.81
2023-03-07T09:26:15.023Z,96923.59
2023-03-07T09:28:43.014Z,97055.91
2023-03-07T09:31:12.279Z,96923.06
2023-03-07T09:33:41.555Z,96954.47
2023-03-07T09:36:12.244Z,96991.97
2023-03-07T09:38:40.537Z,97138.94
2023-03-07T09:41:19.801Z,97117.94
2023-03-07T09:43:55.826Z,97255.66
2023-03-07T09:46:38.713Z,97168.56
2023-03-07T09:49:18.543Z,97299.25
2023-03-07T09:51:49.769Z,97435.75
2023-03-07T09:54:20.139Z,97646.19
2023-03-07T09:56:50.933Z,97853.31
2023-03-07T09:59:23.971Z,97671.38
2023-03-07T10:01:56.555Z,97866.47
2023-03-07T10:04:33.367Z,97779.88
2023-03-07T10:07:04.976Z,97870.06
2023-03-07T10:09:32.916Z,97696.00
2023-03-07T10:12:33.199Z,97899.97
2023-03-07T10:15:14.522Z,97767.97
2023-03-07T10:18:01.887Z,97730.31
2023-03-07T10:20:42.541Z,97504.00
2023-03-07T10:23:29.041Z,97383.09
2023-03-07T10:26:04.777Z,97274.69
2023-03-07T10:28:35.275Z,97401.75
2023-03-07T10:31:15.919Z,97338.78
2023-03-07T10:33:46.976Z,97377.16
2023-03-07T10:36:20.867Z,97260.34
2023-03-07T10:38:59.016Z,97231.09
2023-03-07T10:41:27.145Z,97328.56
2023-03-07T10:43:56.422Z,97439.47
2023-03-07T10:46:27.829Z,97125.13
2023-03-07T10:49:00.433Z,97152.56
2023-03-07T10:51:44.683Z,97263.38
2023-03-07T10:54:16.343Z,97210.69
2023-03-07T10:57:04.048Z,97231.38
2023-03-07T10:59:32.242Z,97220.31
2023-03-07T11:02:02.030Z,96984.78
2023-03-07T11:04:43.375Z,96970.19
2023-03-07T11:07:28.144Z,97058.66
2023-03-07T11:09:57.075Z,97090.50
2023-03-07T11:12:27.287Z,97228.63
2023-03-07T11:14:58.143Z,97265.47
2023-03-07T11:17:28.541Z,97222.25
2023-03-07T11:19:57.344Z,97028.22
2023-03-07T11:22:29.431Z,97022.28
2023-03-07T11:25:03.545Z,97126.25
2023-03-07T11:27:39.282Z,97185.28
2023-03-07T11:30:19.309Z,97181.13
2023-03-07T11:32:58.530Z,97066.81
2023-03-07T11:35:36.061Z,97122.66
2023-03-07T11:38:13.255Z,97202.09
2023-03-07T11:40:56.597Z,97099.75
2023-03-07T11:43:38.163Z,97138.94
2023-03-07T11:46:11.665Z,97144.16
2023-03-07T11:48:53.428Z,97030.00
2023-03-07T11:51:37.936Z,97055.50
2023-03-07T11:54:20.553Z,96987.25
2023-03-07T11:56:52.995Z,97049.56
2023-03-07T12:00:04.596Z,97116.88
2023-03-07T12:02:52.952Z,97177.53
2023-03-07T12:05:43.118Z,97050.41
2023-03-07T12:08:38.726Z,96926.13
2023-03-07T12:11:20.710Z,96909.03
2023-03-07T12:13:59.882Z,96990.84
2023-03-07T12:16:39.504Z,96938.63
2023-03-07T12:19:53.601Z,96851.19
2023-03-07T12:22:36.406Z,96850.34
2023-03-07T12:25:24.722Z,96946.50
2023-03-07T12:28:04.310Z,96928.72
2023-03-07T12:30:44.652Z,96887.66
2023-03-07T12:33:21.316Z,96847.59
2023-03-07T12:35:54.619Z,96844.31
2023-03-07T12:38:32.316Z,96771.88
2023-03-07T12:41:04.935Z,96834.13
2023-03-07T12:43:37.930Z,96800.94
2023-03-07T12:46:16.756Z,96786.50
2023-03-07T12:48:49.515Z,96767.09
2023-03-07T12:51:25.153Z,96661.28
2023-03-07T12:53:58.847Z,96486.94
2023-03-07T12:56:32.346Z,96536.16
2023-03-07T12:59:05.049Z,96537.00
2023-03-07T13:01:38.233Z,96581.13
2023-03-07T13:04:14.448Z,96543.03
2023-03-07T13:06:44.793Z,96524.06
2023-03-07T13:09:21.126Z,96569.47
2023-03-07T13:12:27.099Z,96497.84
2023-03-07T13:14:57.960Z,96469.44
2023-03-07T13:17:58.702Z,96463.91
2023-03-07T13:20:39.475Z,96441.78
2023-03-07T13:23:26.821Z,96437.44
2023-03-07T13:26:00.416Z,96418.03
2023-03-07T13:28:51.303Z,96430.94
2023-03-07T13:31:42.951Z,96310.34
2023-03-07T13:34:51.281Z,96345.81
2023-03-07T13:37:50.900Z,96327.44
2023-03-07T13:40:52.840Z,96315.34
2023-03-07T13:43:59.725Z,96328.78
2023-03-07T13:46:55.756Z,96296.69
2023-03-07T13:49:46.557Z,96371.66
2023-03-07T13:52:37.729Z,96295.88
2023-03-07T13:55:28.679Z,96275.41
2023-03-07T13:58:01.314Z,96288.19
2023-03-07T14:00:34.669Z,96269.53
2023-03-07T14:03:04.394Z,96269.81
2023-03-07T14:05:34.533Z,96245.94
2023-03-07T14:08:03.943Z,96207.81
2023-03-07T14:10:32.765Z,96169.41
2023-03-07T14:13:40.695Z,96160.22
2023-03-07T14:16:33.953Z,96122.78
2023-03-07T14:19:28.115Z,96104.94
2023-03-07T14:22:01.350Z,96137.03
2023-03-07T14:24:44.138Z,96130.47
2023-03-07T14:27:14.887Z,96106.59
2023-03-07T14:29:50.473Z,96113.44
2023-03-07T14:32:28.787Z,96059.19
2023-03-07T14:34:58.886Z,96038.94
2023-03-07T14:37:29.145Z,96028.78
2023-03-07T14:40:13.041Z,96010.13
2023-03-07T14:42:49.905Z,96030.44
2023-03-07T14:45:24.097Z,96033.84
2023-03-07T14:48:30.507Z,95968.50
2023-03-07T14:51:06.871Z,95977.66
2023-03-07T14:53:35.869Z,95972.22
2023-03-07T14:56:08.814Z,95969.31
2023-03-07T14:58:47.718Z,95950.69
2023-03-07T15:01:18.531Z,95984.66
2023-03-07T15:03:48.588Z,95993.97
2023-03-07T15:06:19.678Z,95940.28
2023-03-07T15:08:49.215Z,95921.66
2023-03-07T15:11:28.141Z,95938.94
2023-03-07T15:13:59.242Z,95933.72
2023-03-07T15:16:31.643Z,95892.22
2023-03-07T15:19:03.612Z,95890.59
2023-03-07T15:21:38.194Z,95888.94
2023-03-07T15:24:06.614Z,95829.72
2023-03-07T15:26:34.564Z,95783.19
2023-03-07T15:29:06.456Z,95740.78
2023-03-07T15:31:50.673Z,95746.16
2023-03-07T15:34:24.956Z,95725.59
2023-03-07T15:36:54.483Z,95710.44
2023-03-07T15:39:34.425Z,95676.50
2023-03-07T15:42:05.588Z,95681.72
2023-03-07T15:44:34.261Z,95682.69
2023-03-07T15:47:06.890Z,95655.31
2023-03-07T15:49:41.906Z,95642.59
2023-03-07T15:52:22.399Z,95624.34
2023-03-07T15:54:52.936Z,95653.84
2023-03-07T15:57:23.059Z,95601.53
2023-03-07T15:59:55.318Z,95608.06
2023-03-07T16:02:47.803Z,95619.78
2023-03-07T16:05:33.288Z,95613.91
2023-03-07T16:08:11.661Z,95594.69
2023-03-07T16:10:45.415Z,95595.34
2023-03-07T16:13:17.365Z,95593.72
2023-03-07T16:15:45.532Z,95575.09
2023-03-07T16:18:24.893Z,95554.09
2023-03-07T16:20:52.695Z,95553.28
2023-03-07T16:23:21.835Z,95556.53
2023-03-07T16:25:49.813Z,95560.78
2023-03-07T16:28:17.690Z,95558.97
2023-03-07T16:30:46.563Z,95552.16
2023-03-07T16:33:15.427Z,95531.63
2023-03-07T16:35:45.297Z,95533.56
2023-03-07T16:38:13.167Z,95544.50
2023-03-07T16:40:44.838Z,95508.19
2023-03-07T16:43:32.518Z,95541.91
2023-03-07T16:46:02.308Z,95540.56
2023-03-07T16:48:30.063Z,95534.09
2023-03-07T16:50:58.125Z,95569.56
2023-03-07T16:53:26.686Z,95528.34
2023-03-07T16:55:57.875Z,95554.59
2023-03-07T16:58:28.987Z,95539.28
2023-03-07T17:00:59.044Z,95525.94
2023-03-07T17:03:27.518Z,95515.00
2023-03-07T17:05:55.352Z,95528.53
2023-03-07T17:08:23.155Z,95512.41
2023-03-07T17:10:50.928Z,95486.19
2023-03-07T17:13:20.146Z,95486.34
2023-03-07T17:15:48.239Z,95488.78
2023-03-07T17:18:16.127Z,95455.22
2023-03-07T17:20:44.377Z,95449.34
2023-03-07T17:23:12.987Z,95437.31
2023-03-07T17:25:40.836Z,95418.09
2023-03-07T17:28:11.748Z,95418.09
2023-03-07T17:30:43.067Z,95389.97
2023-03-07T17:33:15.031Z,95410.28
2023-03-07T17:35:43.333Z,95398.56
2023-03-07T17:38:11.143Z,95427.53
2023-03-07T17:40:39.116Z,95417.78
2023-03-07T17:43:06.963Z,95417.13
2023-03-07T17:45:34.753Z,95402.81
2023-03-07T17:48:04.016Z,95419.72
2023-03-07T17:50:31.789Z,95409.47
2023-03-07T17:52:59.803Z,95395.97
2023-03-07T17:55:28.553Z,95413.72
2023-03-07T17:57:56.441Z,95410.44
2023-03-07T18:00:25.068Z,95416.31
2023-03-07T18:02:53.286Z,95414.53
2023-03-07T18:05:25.905Z,95427.88
2023-03-07T18:07:54.207Z,95433.09
2023-03-07T18:10:22.903Z,95439.91
2023-03-07T18:12:53.477Z,95422.84
2023-03-07T18:15:23.034Z,95400.16
2023-03-07T18:17:51.028Z,95422.03
2023-03-07T18:20:20.456Z,95391.91
2023-03-07T18:22:50.204Z,95394.00
2023-03-07T18:25:19.308Z,95426.25
2023-03-07T18:27:48.884Z,95450.81
2023-03-07T18:30:17.673Z,95457.97
2023-03-07T18:32:49.517Z,95454.25
2023-03-07T18:35:17.420Z,95465.97
2023-03-07T18:37:45.711Z,95472.69
2023-03-07T18:40:15.425Z,95477.06
2023-03-07T18:42:43.564Z,95489.63
2023-03-07T18:45:12.202Z,95488.78
2023-03-07T18:47:40.093Z,95491.41
2023-03-07T18:50:09.418Z,95503.78
2023-03-07T18:52:37.345Z,95497.25
2023-03-07T18:55:05.664Z,95487.16
2023-03-07T18:57:34.847Z,95499.88
2023-03-07T19:00:02.709Z,95466.75
2023-03-07T19:02:30.655Z,95491.41
2023-03-07T19:04:58.467Z,95505.72
2023-03-07T19:07:27.922Z,95541.22
2023-03-07T19:09:55.948Z,95545.31
2023-03-07T19:12:23.921Z,95554.59
2023-03-07T19:14:53.143Z,95581.94
2023-03-07T19:17:20.880Z,95587.84
2023-03-07T19:19:48.841Z,95588.50
2023-03-07T19:22:21.490Z,95606.25
2023-03-07T19:24:49.920Z,95608.06
2023-03-07T19:27:18.294Z,95639.34
2023-03-07T19:29:46.060Z,95650.56
2023-03-07T19:32:18.000Z,95655.47
2023-03-07T19:34:49.044Z,95652.81
2023-03-07T19:37:16.926Z,95673.53
2023-03-07T19:39:44.780Z,95658.75
2023-03-07T19:42:12.565Z,95663.78
2023-03-07T19:44:40.316Z,95673.91
2023-03-07T19:47:08.122Z,95689.22
2023-03-07T19:49:37.311Z,95678.13
2023-03-07T19:52:05.749Z,95706.22
2023-03-07T19:54:33.631Z,95712.22
2023-03-07T19:57:01.459Z,95703.59
2023-03-07T19:59:29.369Z,95685.78
2023-03-07T20:01:57.201Z,95693.50
2023-03-07T20:04:25.082Z,95686.63
2023-03-07T20:06:54.261Z,95715.50
2023-03-07T20:09:23.125Z,95740.13
2023-03-07T20:11:50.968Z,95764.59
2023-03-07T20:14:18.817Z,95766.22
2023-03-07T20:16:46.614Z,95756.09
2023-03-07T20:19:15.269Z,95765.41
2023-03-07T20:21:49.661Z,95763.63
2023-03-07T20:24:19.261Z,95757.88
2023-03-07T20:26:48.056Z,95737.50
2023-03-07T20:29:16.088Z,95737.50
2023-03-07T20:31:44.008Z,95746.00
2023-03-07T20:34:11.994Z,95747.13
2023-03-07T20:36:39.747Z,95718.91
2023-03-07T20:39:09.707Z,95730.00
2023-03-07T20:41:38.811Z,95728.38
2023-03-07T20:44:08.283Z,95748.59
2023-03-07T20:46:38.371Z,95730.16
2023-03-07T20:49:06.636Z,95736.69
2023-03-07T20:51:35.864Z,95684.94
2023-03-07T20:54:05.602Z,95717.28
2023-03-07T20:56:35.422Z,95734.25
2023-03-07T20:59:05.081Z,95734.25
2023-03-07T21:01:34.580Z,95731.94
2023-03-07T21:04:06.191Z,95718.41
2023-03-07T21:06:34.542Z,95724.94
2023-03-07T21:09:06.304Z,95708.81
2023-03-07T21:11:34.086Z,95699.63
2023-03-07T21:14:02.212Z,95678.44
2023-03-07T21:16:31.564Z,95689.38
2023-03-07T21:19:01.624Z,95676.00
2023-03-07T21:21:31.226Z,95688.56
2023-03-07T21:23:59.247Z,95710.59
2023-03-07T21:26:28.440Z,95697.88
2023-03-07T21:28:57.220Z,95717.59
2023-03-07T21:31:32.708Z,95689.84
2023-03-07T21:34:02.143Z,95682.69
2023-03-07T21:36:31.349Z,95701.56
2023-03-07T21:38:59.857Z,95678.75
2023-03-07T21:41:29.955Z,95671.09
2023-03-07T21:43:59.158Z,95687.75
2023-03-07T21:46:27.735Z,95685.28
2023-03-07T21:48:59.554Z,95701.44
2023-03-07T21:51:27.356Z,95698.00
2023-03-07T21:53:55.359Z,95701.44
2023-03-07T21:56:23.906Z,95669.00
2023-03-07T21:58:52.058Z,95662.63
2023-03-07T22:01:21.735Z,95676.97
2023-03-07T22:03:52.373Z,95687.91
2023-03-07T22:06:22.350Z,95684.63
2023-03-07T22:08:50.383Z,95691.16
2023-03-07T22:11:18.261Z,95676.81
2023-03-07T22:13:46.203Z,95676.31
2023-03-07T22:16:16.577Z,95680.38
2023-03-07T22:18:44.470Z,95682.19
2023-03-07T22:21:14.642Z,95664.25
2023-03-07T22:23:44.003Z,95668.66
2023-03-07T22:26:13.008Z,95652.34
2023-03-07T22:28:41.444Z,95654.97
2023-03-07T22:31:10.996Z,95673.53
2023-03-07T22:33:39.502Z,95674.53
2023-03-07T22:36:09.548Z,95680.38
2023-03-07T22:38:37.310Z,95677.63
2023-03-07T22:41:08.834Z,95686.91
2023-03-07T22:43:38.273Z,95699.78
2023-03-07T22:46:07.371Z,95690.34
2023-03-07T22:48:35.886Z,95693.75
2023-03-07T22:51:03.761Z,95696.69
2023-03-07T22:53:33.288Z,95690.50
2023-03-07T22:56:01.662Z,95669.31
2023-03-07T22:58:31.109Z,95690.50
2023-03-07T23:00:58.938Z,95676.47
2023-03-07T23:03:26.719Z,95688.34
2023-03-07T23:05:59.837Z,95713.19
2023-03-07T23:08:27.815Z,95715.25
2023-03-07T23:11:01.294Z,95695.69
2023-03-07T23:13:30.607Z,95713.78
2023-03-07T23:15:58.746Z,95745.63
2023-03-07T23:18:26.893Z,95736.19
2023-03-07T23:20:55.087Z,95740.56
2023-03-07T23:23:22.915Z,95737.97
2023-03-07T23:25:50.888Z,95746.28
2023-03-07T23:28:18.765Z,95755.75
2023-03-07T23:30:48.624Z,95753.13
2023-03-07T23:33:16.508Z,95759.16
2023-03-07T23:35:44.631Z,95737.00
2023-03-07T23:38:14.106Z,95756.72
2023-03-07T23:40:42.383Z,95753.97
2023-03-07T23:43:13.856Z,95768.47
2023-03-07T23:45:42.048Z,95777.75
2023-03-07T23:48:11.720Z,95785.41
2023-03-07T23:50:39.528Z,95787.06
2023-03-07T23:53:07.418Z,95785.41
2023-03-07T23:55:35.352Z,95762.53
2023-03-07T23:58:03.275Z,95797.19
